Details From EPLB - Lublin
To EPKK - BALICE
Flight Number -
Tags decoded
Created
Modified
Stats Distance 143 nm / 265 km
Max Altitude 0 ft / 0 m
Waypoints 7
Social Downloads 4
Likes 0
Share VATSIM

Download

Looking for another format? Having issues loading an existing format? Contact us
Advertisement - Login to hide

Notes

Requested: EPLB MONOV NATEV OBOSO ETITI GOVRI EPKK

Route

EPLB MONOV NATEV OBOSO ETITI GOVRI EPKK

ID Type Via Altitude Latitude Longitude Leg Dist Tot Dist Heading (true) Name
O EPLB APT - 0 ft / 0 m 51.23634˚ 22.70251˚ - 0 nm - Lublin
MONOV FIX - 0 ft / 0 m 50.99833˚ 22.37194˚ 18 nm 18 nm 221° / 221° -
NATEV FIX - 0 ft / 0 m 50.86889˚ 22.17111˚ 10 nm 29 nm 224° / 224° -
OBOSO FIX - 0 ft / 0 m 50.61666˚ 21.76250˚ 21 nm 51 nm 226° / 226° -
ETITI FIX - 0 ft / 0 m 50.39583˚ 21.21972˚ 24 nm 76 nm 238° / 237° -
GOVRI FIX - 0 ft / 0 m 50.10693˚ 21.03166˚ 18 nm 94 nm 203° / 203° -
O EPKK APT - 0 ft / 0 m 50.07782˚ 19.78550˚ 48 nm 142 nm 268° / 267° BALICE

Altitude Profile

Advertisement - Login to hide

EPLB

Details ICAO EPLB (LUZ)
Name Lublin
Region Poland
Timezone Europe/Warsaw (UTC+1.0)
Stats Elevation 633 ft / 193 m (AMSL)
Location 51.236345° 22.702508°
Runways 2
Magnetic Variation 6.073° E

METAR

EPLB 170600Z 24006KT 8000 NSC M01/M01 Q1014

Decode

TAF

Not found

Departure Runways

ID Width Length Bearing (true) Bearing (mag) Surface Threshold Offset Overrun Length
06 222 ft / 68 m 3,445 ft / 1,050 m 62.25° 56.18° Grass 0 ft / 0 m 0 ft / 0 m
07 148 ft / 45 m 8,277 ft / 2,523 m 77.06° 70.99° Asphalt 72 ft / 22 m 0 ft / 0 m
24 222 ft / 68 m 3,445 ft / 1,050 m 242.26° 236.19° Grass 0 ft / 0 m 0 ft / 0 m
25 148 ft / 45 m 8,277 ft / 2,523 m 257.09° 251.02° Asphalt 66 ft / 20 m 0 ft / 0 m

EPKK

Details ICAO EPKK (KRK)
Name BALICE
Region Poland
Timezone Europe/Warsaw (UTC+1.0)
Stats Elevation 791 ft / 241 m (AMSL)
Location 50.077821° 19.785503°
Runways 1
Magnetic Variation 5.203° E

METAR

EPKK 170600Z VRB02KT 4000 BR SCT046 M02/M03 Q1015 R25/42//95

Decode

TAF

TAF EPKK 170530Z 1706/1806 24004KT 4000 BR BKN033 TEMPO 1706/1709 2000 -SN BR BKN008 PROB40 1706/1707 1200 -SN BR BKN003 TEMPO 1709/1715 8000 TEMPO 1715/1806 2000 -SN BR BKN007 PROB40 1721/1806 0600 FZFG BKN002

Decode

Destination Runways

ID Width Length Bearing (true) Bearing (mag) Surface Threshold Offset Overrun Length
07 197 ft / 60 m 8,343 ft / 2,543 m 77.75° 72.55° Concrete 0 ft / 0 m 0 ft / 0 m
25 197 ft / 60 m 8,343 ft / 2,543 m 257.77° 252.57° Concrete 784 ft / 239 m 0 ft / 0 m

Approach Navaids

Runway Type Ident Frequency Range Bearing (true) Bearing (mag) Slope Elevation
25 Localiser KRW 110.30 MHz 18 nm / 33 km 257.73° 252.53° - 791 ft / 241 m (AMSL)
25 Glidescope KRW 110.30 MHz 10 nm / 19 km 257.76° 252.56° 3.00° 791 ft / 241 m (AMSL)
25 DME KRW 110.30 MHz 18 nm / 33 km - - - 827 ft / 252 m (AMSL)

Popular Alternatives